Nocc Oceanic — V7YQ4 — position and weather

sailwx.info

Track history (hours):
 
Tides and Currents Weather Stations Pressure Air Temp Water Temp Dewpoint Dewpoint Depression Visibility Wind Speed Wind Dir Waves Ship Positions

Nocc Oceanic

Last reported at 2017-Dec-07 21:14 UTC. Time now 2017-Dec-11 19:14 UTC.
Position N 43°51' W 132°57'.

Length 199 m; draft 9 m.

Type: Ship. MMSI: 538004709.

Date/timePositionNaut miles runAvg speedWind from/ knotsBaromVisibWave heightAir tempDewpointWater temp
2017-Dec-07 21:14N 43°51' W 132°57'314.4
2017-Dec-07 21:00N 43°49' W 132°54'714.4
2017-Dec-07 20:30N 43°45' W 132°46'1714.6
2017-Dec-07 19:19N 43°33' W 132°27'414.3
2017-Dec-07 19:00N 43°31' W 132°23'714.7
2017-Dec-07 18:30N 43°24' W 132°18'714.5
2017-Dec-07 18:00N 43°18' W 132°13'1414.6
2017-Dec-07 17:04N 43°06' W 132°05'114.5
2017-Dec-07 17:00N 43°05' W 132°04'914.4
2017-Dec-07 16:21N 42°57' W 131°58'514.6
2017-Dec-07 16:00N 42°52' W 131°55'714.3
2017-Dec-07 15:30N 42°46' W 131°50'714.5
2017-Dec-07 15:01N 42°40' W 131°45'714.4
2017-Dec-07 14:30N 42°33' W 131°41'714.6
2017-Dec-07 14:00N 42°27' W 131°36'714.7
2017-Dec-07 13:30N 42°20' W 131°32'714.7
2017-Dec-07 13:00N 42°14' W 131°27'1314.7
2017-Dec-07 12:09N 42°02' W 131°19'214.8
2017-Dec-07 12:00N 42°01' W 131°18'714.9
2017-Dec-07 11:30N 41°54' W 131°13'714.9
2017-Dec-07 11:00N 41°47' W 131°08'714.7
2017-Dec-07 10:30N 41°41' W 131°03'715.0
2017-Dec-07 10:00N 41°35' W 130°58'8814.5
2017-Dec-07 03:56N 40°17' W 130°04'2514.4
2017-Dec-07 02:14N 39°55' W 129°49'314.7
2017-Dec-07 02:00N 39°52' W 129°47'4514.9
2017-Dec-06 23:01N 39°13' W 129°20'015.5
2017-Dec-06 22:59N 39°12' W 129°19'714.9
2017-Dec-06 22:30N 39°06' W 129°15'714.9
2017-Dec-06 22:00N 38°59' W 129°11'715.0
2017-Dec-06 21:30N 38°53' W 129°06'  
2017-Dec-04 09:33N 31°09' W 118°24'114.5
2017-Dec-04 09:30N 31°10' W 118°23'914.5
2017-Dec-04 08:54N 31°17' W 118°17'614.5
2017-Dec-04 08:30N 31°21' W 118°13'714.1
2017-Dec-04 08:00N 31°27' W 118°09'713.9
2017-Dec-04 07:31N 31°33' W 118°05'714.3
2017-Dec-04 07:01N 31°39' W 117°60'714.5
2017-Dec-04 06:30N 31°45' W 117°55'914.4
2017-Dec-04 05:53N 31°52' W 117°49'813.9
2017-Dec-04 05:19N 31°59' W 117°44'4414.2
2017-Dec-04 02:15N 32°35' W 117°15'8 6.8
2017-Dec-04 01:02N 32°40' W 117°08'0 9.1
2017-Dec-04 01:00N 32°40' W 117°08'1 0.5
2017-Dec-03 22:53N 32°39' W 117°07'0 0.0
2017-Dec-03 21:47N 32°39' W 117°07'0 0.0
2017-Dec-03 20:14N 32°39' W 117°07'0 0.0
2017-Dec-03 19:11N 32°39' W 117°07'0 0.0
2017-Dec-03 18:59N 32°39' W 117°07'0 0.0
2017-Dec-03 18:29N 32°39' W 117°07'0 0.0
2017-Dec-03 17:59N 32°39' W 117°07'0 0.0
2017-Dec-03 17:26N 32°39' W 117°07'0 0.0
2017-Dec-03 16:59N 32°39' W 117°07'0 0.0
2017-Dec-03 15:17N 32°39' W 117°07'0 0.0
2017-Dec-03 14:57N 32°39' W 117°07'0 0.0
2017-Dec-03 14:27N 32°39' W 117°07'6 6.5
2017-Dec-03 13:33N 32°43' W 117°13'410.7
2017-Dec-03 13:10N 32°39' W 117°14'211.2
2017-Dec-03 13:00N 32°37' W 117°14'5 8.2
2017-Dec-03 12:26N 32°38' W 117°20'3 7.9
2017-Dec-03 12:00N 32°38' W 117°24'611.7
2017-Dec-03 11:31N 32°38' W 117°31'714.2
2017-Dec-03 11:01N 32°37' W 117°39'714.6
2017-Dec-03 10:30N 32°38' W 117°48'714.5
2017-Dec-03 10:00N 32°38' W 117°56'714.4
2017-Dec-03 09:31N 32°38' W 118°05'714.5
2017-Dec-03 09:00N 32°38' W 118°14'714.8
2017-Dec-03 08:31N 32°38' W 118°22'814.9
2017-Dec-03 07:56N 32°38' W 118°32'714.8
2017-Dec-03 07:29N 32°40' W 118°40'715.0
2017-Dec-03 07:00N 32°43' W 118°48'715.0
2017-Dec-03 06:30N 32°46' W 118°56'815.1
2017-Dec-03 06:01N 32°49' W 119°04'815.1
2017-Dec-03 05:31N 32°52' W 119°12'815.1
2017-Dec-03 05:00N 32°55' W 119°21'714.7
2017-Dec-03 04:30N 32°58' W 119°29'714.5
2017-Dec-03 04:00N 33°01' W 119°36'714.6
2017-Dec-03 03:30N 33°04' W 119°44'714.4
2017-Dec-03 03:01N 33°07' W 119°52'714.2
2017-Dec-03 02:30N 33°10' W 119°60'714.0
2017-Dec-03 02:00N 33°14' W 120°06'714.3
2017-Dec-03 01:30N 33°20' W 120°12'714.6
2017-Dec-03 01:00N 33°25' W 120°17'714.3
2017-Dec-03 00:31N 33°31' W 120°23'714.5
2017-Dec-03 00:00N 33°36' W 120°29'713.9
2017-Dec-02 23:30N 33°42' W 120°34'714.5
2017-Dec-02 23:00N 33°47' W 120°40'714.6
2017-Dec-02 22:30N 33°53' W 120°45'714.8
2017-Dec-02 22:00N 33°58' W 120°51'714.8
2017-Dec-02 21:30N 34°04' W 120°57'714.9
2017-Dec-02 21:00N 34°09' W 121°03'714.8
2017-Dec-02 20:30N 34°15' W 121°09'815.0
2017-Dec-02 20:00N 34°21' W 121°14'714.5
2017-Dec-02 19:30N 34°27' W 121°19'714.3
2017-Dec-02 19:00N 34°34' W 121°22'714.4
2017-Dec-02 18:30N 34°40' W 121°26'714.5
2017-Dec-02 18:01N 34°47' W 121°29'714.5
2017-Dec-02 17:30N 34°54' W 121°32'714.4
2017-Dec-02 17:00N 35°00' W 121°36'714.5
2017-Dec-02 16:30N 35°06' W 121°41'714.6
2017-Dec-02 16:01N 35°12' W 121°46'714.5
2017-Dec-02 15:30N 35°18' W 121°51'714.1
2017-Dec-02 15:00N 35°24' W 121°57'714.4
2017-Dec-02 14:30N 35°29' W 122°02'714.9
2017-Dec-02 14:00N 35°35' W 122°08'714.7
2017-Dec-02 13:30N 35°41' W 122°13'714.7
2017-Dec-02 13:00N 35°47' W 122°19'714.9
2017-Dec-02 12:31N 35°53' W 122°24'815.2
2017-Dec-02 12:00N 35°59' W 122°30'714.8
2017-Dec-02 11:31N 36°05' W 122°36'814.9
2017-Dec-02 11:00N 36°11' W 122°41'815.2
2017-Dec-02 10:30N 36°17' W 122°47'715.0
2017-Dec-02 10:00N 36°23' W 122°52'714.8
2017-Dec-02 09:30N 36°29' W 122°58'6 8.9
2017-Dec-02 08:49N 36°23' W 122°58'310.8
2017-Dec-02 08:30N 36°22' W 122°54'713.9
2017-Dec-02 08:00N 36°28' W 122°58'715.0
2017-Dec-02 07:30N 36°34' W 123°03'714.9
2017-Dec-02 07:00N 36°40' W 123°09'714.8
2017-Dec-02 06:30N 36°46' W 123°14'714.7
2017-Dec-02 06:00N 36°52' W 123°20'714.4
2017-Dec-02 05:30N 36°58' W 123°26'714.7
2017-Dec-02 05:00N 37°04' W 123°31'815.9
2017-Dec-02 04:30N 37°10' W 123°37'815.7
2017-Dec-02 04:00N 37°16' W 123°43'815.8
2017-Dec-02 03:30N 37°23' W 123°48'815.7
2017-Dec-02 03:00N 37°31' W 123°51'815.8
2017-Dec-02 02:30N 37°38' W 123°55'815.7
2017-Dec-02 02:00N 37°45' W 123°60'815.7
2017-Dec-02 01:30N 37°52' W 124°04'815.4
2017-Dec-02 00:59N 37°59' W 124°09'815.7
2017-Dec-02 00:30N 38°06' W 124°14'815.6
2017-Dec-02 00:00N 38°12' W 124°18'816.0
2017-Dec-01 23:30N 38°20' W 124°23'916.0
2017-Dec-01 22:58N 38°27' W 124°27'35715.9
2017-Dec-01 00:26N 44°23' W 125°14'816.2
2017-Nov-30 23:56N 44°31' W 125°14'1016.4
2017-Nov-30 23:20N 44°41' W 125°14'1016.8
2017-Nov-30 22:45N 44°51' W 125°13'516.9
2017-Nov-30 22:25N 44°56' W 125°13'716.9
2017-Nov-30 21:59N 45°04' W 125°13'1624.7
2017-Nov-30 21:20N 45°20' W 125°13'0 0.2
2017-Nov-30 21:00N 45°20' W 125°13'816.5
2017-Nov-30 20:30N 45°28' W 125°14'816.5
2017-Nov-30 20:01N 45°36' W 125°14'816.8
2017-Nov-30 19:31N 45°45' W 125°14'816.9
2017-Nov-30 19:01N 45°53' W 125°14'816.9
2017-Nov-30 18:30N 46°02' W 125°14'816.6
2017-Nov-30 18:01N 46°10' W 125°15'816.4
2017-Nov-30 17:31N 46°18' W 125°15'816.4
2017-Nov-30 17:01N 46°26' W 125°15'816.1
2017-Nov-30 16:31N 46°34' W 125°15'815.5
2017-Nov-30 16:00N 46°42' W 125°16'714.8
2017-Nov-30 15:30N 46°50' W 125°16'714.8
2017-Nov-30 15:00N 46°57' W 125°17'714.0
2017-Nov-30 14:30N 47°04' W 125°18'4313.3
2017-Nov-30 11:17N 47°47' W 125°23'513.3
2017-Nov-30 10:55N 47°51' W 125°23'1013.2
2017-Nov-30 10:10N 48°01' W 125°24'412.8
2017-Nov-30 09:49N 48°06' W 125°24'411.8
2017-Nov-30 09:30N 48°09' W 125°23'611.6
2017-Nov-30 09:00N 48°14' W 125°19'611.8
2017-Nov-30 08:30N 48°19' W 125°14'611.5
2017-Nov-30 08:00N 48°24' W 125°09'611.5
2017-Nov-30 07:30N 48°28' W 125°03'611.1
2017-Nov-30 07:00N 48°31' W 124°56'612.7
2017-Nov-30 06:30N 48°31' W 124°46'612.7
2017-Nov-30 06:00N 48°29' W 124°37'713.4
2017-Nov-30 05:30N 48°26' W 124°28'714.1
2017-Nov-30 05:00N 48°23' W 124°18'715.0
2017-Nov-30 04:30N 48°20' W 124°08'815.0
2017-Nov-30 04:00N 48°18' W 123°57'714.8
2017-Nov-30 03:30N 48°17' W 123°46'816.4
2017-Nov-30 03:00N 48°16' W 123°34'815.1
2017-Nov-30 02:30N 48°21' W 123°26'611.2
2017-Nov-30 02:00N 48°23' W 123°18'611.5
2017-Nov-30 01:30N 48°27' W 123°12'919.0
2017-Nov-30 01:00N 48°37' W 123°14'816.5
2017-Nov-30 00:30N 48°44' W 123°09'815.4
2017-Nov-30 00:00N 48°50' W 123°02'918.7
2017-Nov-29 23:30N 48°57' W 123°13'917.4
2017-Nov-29 23:00N 49°03' W 123°21'612.7
2017-Nov-29 22:30N 49°08' W 123°14'611.8
2017-Nov-29 22:00N 49°07' W 123°05'510.4
2017-Nov-29 21:30N 49°09' W 122°58'3 4.5
2017-Nov-29 20:57N 49°11' W 122°55'0 0.0
2017-Nov-29 20:30N 49°11' W 122°55'0 0.0
2017-Nov-29 19:54N 49°11' W 122°55'0 0.0
2017-Nov-29 19:30N 49°11' W 122°55'0 0.0
2017-Nov-29 19:00N 49°11' W 122°55'0 0.0
2017-Nov-29 18:30N 49°11' W 122°55'0 0.0
2017-Nov-29 18:00N 49°11' W 122°55'0 0.0
2017-Nov-29 17:30N 49°11' W 122°55'0 0.0
2017-Nov-29 17:00N 49°11' W 122°55'0 0.0
2017-Nov-29 16:30N 49°11' W 122°55'0 0.0
2017-Nov-29 16:00N 49°11' W 122°55'0 0.0
2017-Nov-29 15:30N 49°11' W 122°55'0 0.0
2017-Nov-29 15:00N 49°11' W 122°55'0 0.0
2017-Nov-29 14:30N 49°11' W 122°55'0 0.0
2017-Nov-29 14:00N 49°11' W 122°55'0 0.0
2017-Nov-29 13:27N 49°11' W 122°55'0 0.0
2017-Nov-29 13:00N 49°11' W 122°55'0 0.0
2017-Nov-29 12:30N 49°11' W 122°55'0 0.0
2017-Nov-29 12:00N 49°11' W 122°55'2 3.6
2017-Nov-29 11:30N 49°10' W 122°57'611.6
2017-Nov-29 11:00N 49°07' W 123°05'612.9
2017-Nov-29 10:31N 49°08' W 123°14'611.2
2017-Nov-29 10:00N 49°04' W 123°21'510.4
2017-Nov-29 09:30N 49°00' W 123°15'918.1
2017-Nov-29 09:00N 48°55' W 123°04'816.0
2017-Nov-29 08:30N 48°47' W 123°01'918.3
2017-Nov-29 08:00N 48°42' W 123°13'816.7
2017-Nov-29 07:31N 48°34' W 123°12'917.9
2017-Nov-29 07:01N 48°25' W 123°11'816.1
2017-Nov-29 06:30N 48°22' W 123°22'714.5
2017-Nov-29 06:00N 48°15' W 123°26'713.9
2017-Nov-29 05:30N 48°09' W 123°22'713.5
2017-Nov-29 05:00N 48°11' W 123°13'816.2
2017-Nov-29 04:30N 48°12' W 123°01'917.4
2017-Nov-29 04:00N 48°11' W 122°48'1117.2
2017-Nov-29 03:21N 48°02' W 122°38'617.9
2017-Nov-29 03:01N 47°57' W 122°33'917.7
2017-Nov-29 02:31N 47°49' W 122°27'918.1
2017-Nov-29 02:01N 47°40' W 122°27'918.3
2017-Nov-29 01:31N 47°31' W 122°25'917.3
2017-Nov-29 01:01N 47°23' W 122°21'713.2
2017-Nov-29 00:30N 47°17' W 122°26'2 4.8
2017-Nov-29 00:00N 47°16' W 122°23'0 0.5
2017-Nov-28 23:29N 47°16' W 122°23'0 0.0
2017-Nov-28 22:59N 47°16' W 122°23'0 0.0
2017-Nov-28 22:29N 47°16' W 122°23'0 0.0
2017-Nov-28 21:59N 47°16' W 122°23'0 0.0
2017-Nov-28 21:26N 47°16' W 122°23'0 0.0
2017-Nov-28 20:56N 47°16' W 122°23'0 0.0
2017-Nov-28 20:26N 47°16' W 122°23'0 0.0
2017-Nov-28 19:59N 47°16' W 122°23'0 0.0
2017-Nov-28 19:23N 47°16' W 122°23'0 0.0
2017-Nov-28 18:59N 47°16' W 122°23'0 0.0
2017-Nov-28 18:26N 47°16' W 122°23'0 0.0
2017-Nov-28 17:56N 47°16' W 122°23'0 0.0
2017-Nov-28 17:29N 47°16' W 122°23'0 0.0
2017-Nov-28 16:59N 47°16' W 122°23'0 0.0
2017-Nov-28 16:29N 47°16' W 122°23'0 0.0
2017-Nov-28 15:59N 47°16' W 122°23'0 0.0
2017-Nov-28 14:56N 47°16' W 122°23'0 0.0
2017-Nov-28 14:29N 47°16' W 122°23'0 0.0
2017-Nov-28 13:56N 47°16' W 122°23'0 0.0
2017-Nov-28 13:26N 47°16' W 122°23'0 0.0
2017-Nov-28 12:56N 47°16' W 122°23'0 0.0
2017-Nov-28 11:56N 47°16' W 122°23'0 0.0
2017-Nov-28 11:20N 47°16' W 122°23'0 0.0
2017-Nov-28 10:59N 47°16' W 122°23'0 0.0
2017-Nov-28 10:29N 47°16' W 122°23'0 0.0
2017-Nov-28 09:59N 47°16' W 122°23'0 0.0
2017-Nov-28 09:26N 47°16' W 122°23'0 0.0
2017-Nov-28 08:56N 47°16' W 122°23'0 0.0
2017-Nov-28 08:29N 47°16' W 122°23'0 0.0
2017-Nov-28 07:56N 47°16' W 122°23'0 0.0
2017-Nov-28 07:26N 47°16' W 122°23'0 0.0
2017-Nov-28 06:56N 47°16' W 122°23'0 0.0
2017-Nov-28 06:20N 47°16' W 122°23'0 0.0
2017-Nov-28 05:56N 47°16' W 122°23'0 0.0
2017-Nov-28 05:26N 47°16' W 122°23'0 0.0
2017-Nov-28 04:26N 47°16' W 122°23'0 0.0
2017-Nov-28 03:59N 47°16' W 122°23'0 0.0
2017-Nov-28 03:11N 47°16' W 122°23'0 0.7
2017-Nov-28 02:59N 47°16' W 122°23'0 0.0
2017-Nov-28 02:29N 47°16' W 122°23'0 0.0
2017-Nov-28 01:59N 47°16' W 122°23'0 0.0
2017-Nov-28 01:29N 47°16' W 122°23'0 0.0
2017-Nov-28 00:59N 47°16' W 122°23'0 0.0
2017-Nov-28 00:29N 47°16' W 122°23'0 0.0
2017-Nov-27 23:56N 47°16' W 122°23'0 0.0
2017-Nov-27 23:29N 47°16' W 122°23'0 0.0
2017-Nov-27 22:59N 47°16' W 122°23'0 0.0
2017-Nov-27 22:29N 47°16' W 122°23'0 0.0
2017-Nov-27 21:56N 47°16' W 122°23'0 0.0
2017-Nov-27 21:26N 47°16' W 122°23'  
Track history (hours):
 
Tides and Currents Weather Stations Pressure Air Temp Water Temp Dewpoint Dewpoint Depression Visibility Wind Speed Wind Dir Waves Ship Positions

Nocc Oceanic

Last reported at 2017-Dec-07 21:14 UTC. Time now 2017-Dec-11 19:14 UTC.
Position N 43°51' W 132°57'.

Length 199 m; draft 9 m.

Type: Ship. MMSI: 538004709.

Date/timePositionNaut miles runAvg speedWind from/ knotsBaromVisibWave heightAir tempDewpointWater temp
2017-Dec-07 21:14N 43°51' W 132°57'314.4
2017-Dec-07 21:00N 43°49' W 132°54'714.4
2017-Dec-07 20:30N 43°45' W 132°46'1714.6
2017-Dec-07 19:19N 43°33' W 132°27'414.3
2017-Dec-07 19:00N 43°31' W 132°23'714.7
2017-Dec-07 18:30N 43°24' W 132°18'714.5
2017-Dec-07 18:00N 43°18' W 132°13'1414.6
2017-Dec-07 17:04N 43°06' W 132°05'114.5
2017-Dec-07 17:00N 43°05' W 132°04'914.4
2017-Dec-07 16:21N 42°57' W 131°58'514.6
2017-Dec-07 16:00N 42°52' W 131°55'714.3
2017-Dec-07 15:30N 42°46' W 131°50'714.5
2017-Dec-07 15:01N 42°40' W 131°45'714.4
2017-Dec-07 14:30N 42°33' W 131°41'714.6
2017-Dec-07 14:00N 42°27' W 131°36'714.7
2017-Dec-07 13:30N 42°20' W 131°32'714.7
2017-Dec-07 13:00N 42°14' W 131°27'1314.7
2017-Dec-07 12:09N 42°02' W 131°19'214.8
2017-Dec-07 12:00N 42°01' W 131°18'714.9
2017-Dec-07 11:30N 41°54' W 131°13'714.9
2017-Dec-07 11:00N 41°47' W 131°08'714.7
2017-Dec-07 10:30N 41°41' W 131°03'715.0
2017-Dec-07 10:00N 41°35' W 130°58'8814.5
2017-Dec-07 03:56N 40°17' W 130°04'2514.4
2017-Dec-07 02:14N 39°55' W 129°49'314.7
2017-Dec-07 02:00N 39°52' W 129°47'4514.9
2017-Dec-06 23:01N 39°13' W 129°20'015.5
2017-Dec-06 22:59N 39°12' W 129°19'714.9
2017-Dec-06 22:30N 39°06' W 129°15'714.9
2017-Dec-06 22:00N 38°59' W 129°11'715.0
2017-Dec-06 21:30N 38°53' W 129°06'  
2017-Dec-04 09:33N 31°09' W 118°24'114.5
2017-Dec-04 09:30N 31°10' W 118°23'914.5
2017-Dec-04 08:54N 31°17' W 118°17'614.5
2017-Dec-04 08:30N 31°21' W 118°13'714.1
2017-Dec-04 08:00N 31°27' W 118°09'713.9
2017-Dec-04 07:31N 31°33' W 118°05'714.3
2017-Dec-04 07:01N 31°39' W 117°60'714.5
2017-Dec-04 06:30N 31°45' W 117°55'914.4
2017-Dec-04 05:53N 31°52' W 117°49'813.9
2017-Dec-04 05:19N 31°59' W 117°44'4414.2
2017-Dec-04 02:15N 32°35' W 117°15'8 6.8
2017-Dec-04 01:02N 32°40' W 117°08'0 9.1
2017-Dec-04 01:00N 32°40' W 117°08'1 0.5
2017-Dec-03 22:53N 32°39' W 117°07'0 0.0
2017-Dec-03 21:47N 32°39' W 117°07'0 0.0
2017-Dec-03 20:14N 32°39' W 117°07'0 0.0
2017-Dec-03 19:11N 32°39' W 117°07'0 0.0
2017-Dec-03 18:59N 32°39' W 117°07'0 0.0
2017-Dec-03 18:29N 32°39' W 117°07'0 0.0
2017-Dec-03 17:59N 32°39' W 117°07'0 0.0
2017-Dec-03 17:26N 32°39' W 117°07'0 0.0
2017-Dec-03 16:59N 32°39' W 117°07'0 0.0
2017-Dec-03 15:17N 32°39' W 117°07'0 0.0
2017-Dec-03 14:57N 32°39' W 117°07'0 0.0
2017-Dec-03 14:27N 32°39' W 117°07'6 6.5
2017-Dec-03 13:33N 32°43' W 117°13'410.7
2017-Dec-03 13:10N 32°39' W 117°14'211.2
2017-Dec-03 13:00N 32°37' W 117°14'5 8.2
2017-Dec-03 12:26N 32°38' W 117°20'3 7.9
2017-Dec-03 12:00N 32°38' W 117°24'611.7
2017-Dec-03 11:31N 32°38' W 117°31'714.2
2017-Dec-03 11:01N 32°37' W 117°39'714.6
2017-Dec-03 10:30N 32°38' W 117°48'714.5
2017-Dec-03 10:00N 32°38' W 117°56'714.4
2017-Dec-03 09:31N 32°38' W 118°05'714.5
2017-Dec-03 09:00N 32°38' W 118°14'714.8
2017-Dec-03 08:31N 32°38' W 118°22'814.9
2017-Dec-03 07:56N 32°38' W 118°32'714.8
2017-Dec-03 07:29N 32°40' W 118°40'715.0
2017-Dec-03 07:00N 32°43' W 118°48'715.0
2017-Dec-03 06:30N 32°46' W 118°56'815.1
2017-Dec-03 06:01N 32°49' W 119°04'815.1
2017-Dec-03 05:31N 32°52' W 119°12'815.1
2017-Dec-03 05:00N 32°55' W 119°21'714.7
2017-Dec-03 04:30N 32°58' W 119°29'714.5
2017-Dec-03 04:00N 33°01' W 119°36'714.6
2017-Dec-03 03:30N 33°04' W 119°44'714.4
2017-Dec-03 03:01N 33°07' W 119°52'714.2
2017-Dec-03 02:30N 33°10' W 119°60'714.0
2017-Dec-03 02:00N 33°14' W 120°06'714.3
2017-Dec-03 01:30N 33°20' W 120°12'714.6
2017-Dec-03 01:00N 33°25' W 120°17'714.3
2017-Dec-03 00:31N 33°31' W 120°23'714.5
2017-Dec-03 00:00N 33°36' W 120°29'713.9
2017-Dec-02 23:30N 33°42' W 120°34'714.5
2017-Dec-02 23:00N 33°47' W 120°40'714.6
2017-Dec-02 22:30N 33°53' W 120°45'714.8
2017-Dec-02 22:00N 33°58' W 120°51'714.8
2017-Dec-02 21:30N 34°04' W 120°57'714.9
2017-Dec-02 21:00N 34°09' W 121°03'714.8
2017-Dec-02 20:30N 34°15' W 121°09'815.0
2017-Dec-02 20:00N 34°21' W 121°14'714.5
2017-Dec-02 19:30N 34°27' W 121°19'714.3
2017-Dec-02 19:00N 34°34' W 121°22'714.4
2017-Dec-02 18:30N 34°40' W 121°26'714.5
2017-Dec-02 18:01N 34°47' W 121°29'714.5
2017-Dec-02 17:30N 34°54' W 121°32'714.4
2017-Dec-02 17:00N 35°00' W 121°36'714.5
2017-Dec-02 16:30N 35°06' W 121°41'714.6
2017-Dec-02 16:01N 35°12' W 121°46'714.5
2017-Dec-02 15:30N 35°18' W 121°51'714.1
2017-Dec-02 15:00N 35°24' W 121°57'714.4
2017-Dec-02 14:30N 35°29' W 122°02'714.9
2017-Dec-02 14:00N 35°35' W 122°08'714.7
2017-Dec-02 13:30N 35°41' W 122°13'714.7
2017-Dec-02 13:00N 35°47' W 122°19'714.9
2017-Dec-02 12:31N 35°53' W 122°24'815.2
2017-Dec-02 12:00N 35°59' W 122°30'714.8
2017-Dec-02 11:31N 36°05' W 122°36'814.9
2017-Dec-02 11:00N 36°11' W 122°41'815.2
2017-Dec-02 10:30N 36°17' W 122°47'715.0
2017-Dec-02 10:00N 36°23' W 122°52'714.8
2017-Dec-02 09:30N 36°29' W 122°58'6 8.9
2017-Dec-02 08:49N 36°23' W 122°58'310.8
2017-Dec-02 08:30N 36°22' W 122°54'713.9
2017-Dec-02 08:00N 36°28' W 122°58'715.0
2017-Dec-02 07:30N 36°34' W 123°03'714.9
2017-Dec-02 07:00N 36°40' W 123°09'714.8
2017-Dec-02 06:30N 36°46' W 123°14'714.7
2017-Dec-02 06:00N 36°52' W 123°20'714.4
2017-Dec-02 05:30N 36°58' W 123°26'714.7
2017-Dec-02 05:00N 37°04' W 123°31'815.9
2017-Dec-02 04:30N 37°10' W 123°37'815.7
2017-Dec-02 04:00N 37°16' W 123°43'815.8
2017-Dec-02 03:30N 37°23' W 123°48'815.7
2017-Dec-02 03:00N 37°31' W 123°51'815.8
2017-Dec-02 02:30N 37°38' W 123°55'815.7
2017-Dec-02 02:00N 37°45' W 123°60'815.7
2017-Dec-02 01:30N 37°52' W 124°04'815.4
2017-Dec-02 00:59N 37°59' W 124°09'815.7
2017-Dec-02 00:30N 38°06' W 124°14'815.6
2017-Dec-02 00:00N 38°12' W 124°18'816.0
2017-Dec-01 23:30N 38°20' W 124°23'916.0
2017-Dec-01 22:58N 38°27' W 124°27'35715.9
2017-Dec-01 00:26N 44°23' W 125°14'816.2
2017-Nov-30 23:56N 44°31' W 125°14'1016.4
2017-Nov-30 23:20N 44°41' W 125°14'1016.8
2017-Nov-30 22:45N 44°51' W 125°13'516.9
2017-Nov-30 22:25N 44°56' W 125°13'716.9
2017-Nov-30 21:59N 45°04' W 125°13'1624.7
2017-Nov-30 21:20N 45°20' W 125°13'0 0.2
2017-Nov-30 21:00N 45°20' W 125°13'816.5
2017-Nov-30 20:30N 45°28' W 125°14'816.5
2017-Nov-30 20:01N 45°36' W 125°14'816.8
2017-Nov-30 19:31N 45°45' W 125°14'816.9
2017-Nov-30 19:01N 45°53' W 125°14'816.9
2017-Nov-30 18:30N 46°02' W 125°14'816.6
2017-Nov-30 18:01N 46°10' W 125°15'816.4
2017-Nov-30 17:31N 46°18' W 125°15'816.4
2017-Nov-30 17:01N 46°26' W 125°15'816.1
2017-Nov-30 16:31N 46°34' W 125°15'815.5
2017-Nov-30 16:00N 46°42' W 125°16'714.8
2017-Nov-30 15:30N 46°50' W 125°16'714.8
2017-Nov-30 15:00N 46°57' W 125°17'714.0
2017-Nov-30 14:30N 47°04' W 125°18'4313.3
2017-Nov-30 11:17N 47°47' W 125°23'513.3
2017-Nov-30 10:55N 47°51' W 125°23'1013.2
2017-Nov-30 10:10N 48°01' W 125°24'412.8
2017-Nov-30 09:49N 48°06' W 125°24'411.8
2017-Nov-30 09:30N 48°09' W 125°23'611.6
2017-Nov-30 09:00N 48°14' W 125°19'611.8
2017-Nov-30 08:30N 48°19' W 125°14'611.5
2017-Nov-30 08:00N 48°24' W 125°09'611.5
2017-Nov-30 07:30N 48°28' W 125°03'611.1
2017-Nov-30 07:00N 48°31' W 124°56'612.7
2017-Nov-30 06:30N 48°31' W 124°46'612.7
2017-Nov-30 06:00N 48°29' W 124°37'713.4
2017-Nov-30 05:30N 48°26' W 124°28'714.1
2017-Nov-30 05:00N 48°23' W 124°18'715.0
2017-Nov-30 04:30N 48°20' W 124°08'815.0
2017-Nov-30 04:00N 48°18' W 123°57'714.8
2017-Nov-30 03:30N 48°17' W 123°46'816.4
2017-Nov-30 03:00N 48°16' W 123°34'815.1
2017-Nov-30 02:30N 48°21' W 123°26'611.2
2017-Nov-30 02:00N 48°23' W 123°18'611.5
2017-Nov-30 01:30N 48°27' W 123°12'919.0
2017-Nov-30 01:00N 48°37' W 123°14'816.5
2017-Nov-30 00:30N 48°44' W 123°09'815.4
2017-Nov-30 00:00N 48°50' W 123°02'918.7
2017-Nov-29 23:30N 48°57' W 123°13'917.4
2017-Nov-29 23:00N 49°03' W 123°21'612.7
2017-Nov-29 22:30N 49°08' W 123°14'611.8
2017-Nov-29 22:00N 49°07' W 123°05'510.4
2017-Nov-29 21:30N 49°09' W 122°58'3 4.5
2017-Nov-29 20:57N 49°11' W 122°55'0 0.0
2017-Nov-29 20:30N 49°11' W 122°55'0 0.0
2017-Nov-29 19:54N 49°11' W 122°55'0 0.0
2017-Nov-29 19:30N 49°11' W 122°55'0 0.0
2017-Nov-29 19:00N 49°11' W 122°55'0 0.0
2017-Nov-29 18:30N 49°11' W 122°55'0 0.0
2017-Nov-29 18:00N 49°11' W 122°55'0 0.0
2017-Nov-29 17:30N 49°11' W 122°55'0 0.0
2017-Nov-29 17:00N 49°11' W 122°55'0 0.0
2017-Nov-29 16:30N 49°11' W 122°55'0 0.0
2017-Nov-29 16:00N 49°11' W 122°55'0 0.0
2017-Nov-29 15:30N 49°11' W 122°55'0 0.0
2017-Nov-29 15:00N 49°11' W 122°55'0 0.0
2017-Nov-29 14:30N 49°11' W 122°55'0 0.0
2017-Nov-29 14:00N 49°11' W 122°55'0 0.0
2017-Nov-29 13:27N 49°11' W 122°55'0 0.0
2017-Nov-29 13:00N 49°11' W 122°55'0 0.0
2017-Nov-29 12:30N 49°11' W 122°55'0 0.0
2017-Nov-29 12:00N 49°11' W 122°55'2 3.6
2017-Nov-29 11:30N 49°10' W 122°57'611.6
2017-Nov-29 11:00N 49°07' W 123°05'612.9
2017-Nov-29 10:31N 49°08' W 123°14'611.2
2017-Nov-29 10:00N 49°04' W 123°21'510.4
2017-Nov-29 09:30N 49°00' W 123°15'918.1
2017-Nov-29 09:00N 48°55' W 123°04'816.0
2017-Nov-29 08:30N 48°47' W 123°01'918.3
2017-Nov-29 08:00N 48°42' W 123°13'816.7
2017-Nov-29 07:31N 48°34' W 123°12'917.9
2017-Nov-29 07:01N 48°25' W 123°11'816.1
2017-Nov-29 06:30N 48°22' W 123°22'714.5
2017-Nov-29 06:00N 48°15' W 123°26'713.9
2017-Nov-29 05:30N 48°09' W 123°22'713.5
2017-Nov-29 05:00N 48°11' W 123°13'816.2
2017-Nov-29 04:30N 48°12' W 123°01'917.4
2017-Nov-29 04:00N 48°11' W 122°48'1117.2
2017-Nov-29 03:21N 48°02' W 122°38'617.9
2017-Nov-29 03:01N 47°57' W 122°33'917.7
2017-Nov-29 02:31N 47°49' W 122°27'918.1
2017-Nov-29 02:01N 47°40' W 122°27'918.3
2017-Nov-29 01:31N 47°31' W 122°25'917.3
2017-Nov-29 01:01N 47°23' W 122°21'713.2
2017-Nov-29 00:30N 47°17' W 122°26'2 4.8
2017-Nov-29 00:00N 47°16' W 122°23'0 0.5
2017-Nov-28 23:29N 47°16' W 122°23'0 0.0
2017-Nov-28 22:59N 47°16' W 122°23'0 0.0
2017-Nov-28 22:29N 47°16' W 122°23'0 0.0
2017-Nov-28 21:59N 47°16' W 122°23'0 0.0
2017-Nov-28 21:26N 47°16' W 122°23'0 0.0
2017-Nov-28 20:56N 47°16' W 122°23'0 0.0
2017-Nov-28 20:26N 47°16' W 122°23'0 0.0
2017-Nov-28 19:59N 47°16' W 122°23'0 0.0
2017-Nov-28 19:23N 47°16' W 122°23'0 0.0
2017-Nov-28 18:59N 47°16' W 122°23'0 0.0
2017-Nov-28 18:26N 47°16' W 122°23'0 0.0
2017-Nov-28 17:56N 47°16' W 122°23'0 0.0
2017-Nov-28 17:29N 47°16' W 122°23'0 0.0
2017-Nov-28 16:59N 47°16' W 122°23'0 0.0
2017-Nov-28 16:29N 47°16' W 122°23'0 0.0
2017-Nov-28 15:59N 47°16' W 122°23'0 0.0
2017-Nov-28 14:56N 47°16' W 122°23'0 0.0
2017-Nov-28 14:29N 47°16' W 122°23'0 0.0
2017-Nov-28 13:56N 47°16' W 122°23'0 0.0
2017-Nov-28 13:26N 47°16' W 122°23'0 0.0
2017-Nov-28 12:56N 47°16' W 122°23'0 0.0
2017-Nov-28 11:56N 47°16' W 122°23'0 0.0
2017-Nov-28 11:20N 47°16' W 122°23'0 0.0
2017-Nov-28 10:59N 47°16' W 122°23'0 0.0
2017-Nov-28 10:29N 47°16' W 122°23'0 0.0
2017-Nov-28 09:59N 47°16' W 122°23'0 0.0
2017-Nov-28 09:26N 47°16' W 122°23'0 0.0
2017-Nov-28 08:56N 47°16' W 122°23'0 0.0
2017-Nov-28 08:29N 47°16' W 122°23'0 0.0
2017-Nov-28 07:56N 47°16' W 122°23'0 0.0
2017-Nov-28 07:26N 47°16' W 122°23'0 0.0
2017-Nov-28 06:56N 47°16' W 122°23'0 0.0
2017-Nov-28 06:20N 47°16' W 122°23'0 0.0
2017-Nov-28 05:56N 47°16' W 122°23'0 0.0
2017-Nov-28 05:26N 47°16' W 122°23'0 0.0
2017-Nov-28 04:26N 47°16' W 122°23'0 0.0
2017-Nov-28 03:59N 47°16' W 122°23'0 0.0
2017-Nov-28 03:11N 47°16' W 122°23'0 0.7
2017-Nov-28 02:59N 47°16' W 122°23'0 0.0
2017-Nov-28 02:29N 47°16' W 122°23'0 0.0
2017-Nov-28 01:59N 47°16' W 122°23'0 0.0
2017-Nov-28 01:29N 47°16' W 122°23'0 0.0
2017-Nov-28 00:59N 47°16' W 122°23'0 0.0
2017-Nov-28 00:29N 47°16' W 122°23'0 0.0
2017-Nov-27 23:56N 47°16' W 122°23'0 0.0
2017-Nov-27 23:29N 47°16' W 122°23'0 0.0
2017-Nov-27 22:59N 47°16' W 122°23'0 0.0
2017-Nov-27 22:29N 47°16' W 122°23'0 0.0
2017-Nov-27 21:56N 47°16' W 122°23'0 0.0
2017-Nov-27 21:26N 47°16' W 122°23'  

Dump ship's entire track history